Relevés horaires Beauvechain (Belgique)


Relevés horaires à Beauvechain - Samedi 15 Juill. 2017
Heure UTC1 Température [°C] Vent [km/h] Hum. [%] Pres.4 [hPa] Visi. [Km] Nébu. [octa] Préc.5 [mm] Cond.
2m. Res. Ros. Dir.2 Vit. Moy. Raf.3
23:00 17.1 17.1 11.4 SSO 3.7 -- 7.4 69 1023.5(-0.1/3h) 20 -- -- --
22:00 16.7 16.7 11.8 NNO 1.9 -- 5.6 73 1023.7(1.0/3h) 20 -- -- NA
21:00 16.8 16.8 13.0 NNO 1.9 -- 11.1 78 1023.6(0.8/3h) 20 -- -- NA
20:00 17.7 17.7 13.6 O 7.4 -- 9.3 77 1023.6(0.8/3h) 19 -- -- Il y a de la pluie faible et continue à la station au moment de l'observation
19:00 20.2 20.2 11.6 NNO 1.9 -- 5.6 58 1022.5(-0.3/3h) 20 -- -- --
18:00 20.7 20.7 11.3 NNO 1.9 -- 13.0 55 1022.6(-0.5/3h) 20 -- -- --
17:00 21.0 21.0 10.5 OSO 5.6 -- 9.3 51 1022.6(-0.8/3h) 20 -- -- --
16:00 21.3 21.3 10.0 SO 3.7 -- 13.0 48 1022.7(-0.6/3h) 20 -- -- --
15:00 21.5 21.5 10.8 SSO 7.4 -- 13.0 51 1023(-0.3/3h) 20 -- -- --
14:00 20.8 20.8 9.7 SO 3.7 -- 11.1 49 1023.5(0.1/3h) 20 -- -- --
13:00 20.1 20.1 10.0 OSO 5.6 -- 13.0 52 1023.6(0.0/3h) 20 -- -- --
12:00 19.5 19.5 9.7 OSO 5.6 -- 13.0 53 1023.5(0.0/3h) 20 -- -- --
11:00 19.2 19.2 9.6 OSO 7.4 -- 11.1 54 1023.6(0.1/3h) 20 -- -- --
10:00 18.9 18.9 8.8 OSO 7.4 -- 11.1 52 1023.7(0.3/3h) 20 -- -- --
09:00 18.2 18.2 10.6 OSO 5.6 -- 11.1 61 1023.6(0.5/3h) 20 -- -- --
08:00 17.3 17.3 11.1 OSO 5.6 -- 9.3 67 1023.6(0.7/3h) 20 -- -- --
07:00 15.9 15.9 11.3 OSO 5.6 -- 7.4 74 1023.5(0.9/3h) 20 -- -- --
06:00 13.6 13.6 10.9 SO 5.6 -- 7.4 84 1023.2(0.9/3h) 20 -- -- --
05:00 12.3 12.3 10.1 SO 3.7 -- 5.6 86 1023.1(0.9/3h) 20 -- -- --
04:00 12.1 12.1 9.9 SO 3.7 -- 5.6 86 1022.7(0.6/3h) 20 -- -- --
03:00 12.1 12.1 9.7 SO 3.7 -- 5.6 85 1022.2(0.1/3h) 20 -- -- --
02:00 11.6 11.6 9.6 SO 3.7 -- 3.7 88 1022.1(0.1/3h) 20 -- -- --
01:00 12.0 12.0 9.8 OSO 3.7 -- 5.6 86 1022.1(0.3/3h) 20 -- -- --
00:00 12.6 12.6 9.9 OSO 3.7 -- 13.0 84 1022.2(0.8/3h) 20 -- -- --

1 Coordinated Universal Time. Actuellement il est 14:00 locale et 13:00 UTC.

2 Le vent souffle depuis la direction indiquée vers la direction oposée.

3 Les rafales max. sont disponible 40 min après l'heure du relevé.

4 Pour les stations d'altitude (plus de 600m) le géopotentiel du niveau le plus proche de la pression obligatoire est indiqué.

5 Les stations disposant d'un diffuseur peuvent indiquer "trace". Cela signifie que des précipitations ont touchés le sol mais que la quantité est inférieure à 0.1 mm.

Récapitulatif de la journée
Température [°C] Vent [km/h] Ensoleillement4 [h] Precipitations totale5 [mm] Pression [Hpa]
Min1 Max.2 Moy.3 Max. Min Max.
11.6 22.0 0 13.0 0 h 0 min 0 1022.1 1023.7

1 Température minimale relevée entre 18:00 UTC la veille et 18:00 UTC le jour donné.

2 Température maximale relevée entre 06:00 UTC le jour donné et 06:00 UTC le lendemain.

3 Vent moyen de la journée basé sur les relevés horaires.

4 Ensoleillement en heures relevé entre 06:00 UTC la veille et 06:00 UTC le jour donné.

5 Précipitations totales tombées entre 06:00 UTC la jour donné et 06:00 UTC le lendemain.

Graphiques horaires